Capao Bonito, Brazil
Current Conditions -  °F | °C
As of 6:00 AM on Saturday 01 Nov 2014 (Local Time) from SBKP Reporting Station
Light Rain Light Rain  
Wind Chill: 21°   Ceiling: Unl
Heat Index: 21°   Visibility: 4mi
Dew Point: 19°   Wind: 8mph
Humidity: 88%   Direction: 80°E
Pressure: 30.06"   Gusts: NA
Location:  24.03°S, 48.35°W
Report Text: SBKP 010800Z 08007KT 6000 -RA SCT046 SCT080 21/19 Q1018
Loading
Personal Weather Stations






























Interactive Weather Map
Tropical Storm Tracking
New forecast layout! Learn more

10-Day Weather Forecast

Advertisements
Track Severe Weather on mobile